Time;durP1;ratioP1;P1;durP2;ratioP2;P2;SDS_P1;SDS_P2;PMS_P1;PMS_P2;Temp;Humidity;BMP_temperature;BMP_pressure;BME280_temperature;BME280_humidity;BME280_pressure;Samples;Min_cycle;Max_cycle;Signal;HPM_P1;HPM_P2
2023/04/19 00:00:07;;;;;;;22.07;18.27;;;12.90;99.90;;;;;;4946095;28;20242;-40
2023/04/19 00:02:37;;;;;;;22.07;18.60;;;12.90;99.90;;;;;;4946040;28;20235;-40
2023/04/19 00:05:08;;;;;;;22.33;19.00;;;12.80;99.90;;;;;;4929403;29;20212;-40
2023/04/19 00:07:35;;;;;;;20.80;18.60;;;12.80;99.90;;;;;;4953692;28;20690;-39
2023/04/19 00:10:10;;;;;;;21.20;18.23;;;12.80;99.90;;;;;;4935389;28;20314;-39
2023/04/19 00:12:40;;;;;;;20.70;18.03;;;12.80;99.90;;;;;;4942822;28;20750;-39
2023/04/19 00:15:09;;;;;;;21.33;18.93;;;12.70;99.90;;;;;;4958959;28;20302;-39
2023/04/19 00:17:39;;;;;;;21.80;19.13;;;12.70;99.90;;;;;;4945148;28;20295;-39
2023/04/19 00:20:11;;;;;;;21.03;18.67;;;12.70;99.90;;;;;;4946179;28;20214;-39
2023/04/19 00:22:41;;;;;;;20.80;18.47;;;12.60;99.90;;;;;;4946512;28;20207;-39
2023/04/19 00:25:10;;;;;;;24.43;19.47;;;12.60;99.90;;;;;;4975028;28;20216;-39
2023/04/19 00:27:40;;;;;;;23.20;19.40;;;12.60;99.90;;;;;;4959096;28;20305;-40
2023/04/19 00:30:07;;;;;;;21.93;19.13;;;12.60;99.90;;;;;;4976753;28;20547;-39
2023/04/19 00:32:39;;;;;;;22.03;19.63;;;12.60;99.90;;;;;;4944204;28;20200;-39
2023/04/19 00:35:11;;;;;;;22.77;20.33;;;12.50;99.90;;;;;;4946009;28;20215;-40
2023/04/19 00:37:41;;;;;;;23.20;19.60;;;12.50;99.90;;;;;;4945740;28;20298;-39
2023/04/19 00:40:09;;;;;;;23.50;19.87;;;12.50;99.90;;;;;;4944750;28;20211;-39
2023/04/19 00:42:43;;;;;;;22.63;20.23;;;12.40;99.90;;;;;;4944042;29;20203;-39
2023/04/19 00:45:13;;;;;;;22.00;19.60;;;12.40;99.90;;;;;;4928330;28;20219;-39
2023/04/19 00:47:42;;;;;;;21.80;19.37;;;12.40;99.90;;;;;;4926464;29;20208;-39
2023/04/19 00:50:11;;;;;;;23.40;19.67;;;12.30;99.90;;;;;;4956767;28;20689;-39
2023/04/19 00:52:39;;;;;;;22.10;19.70;;;12.30;99.90;;;;;;4943833;29;20646;-39
2023/04/19 00:55:07;;;;;;;22.17;18.80;;;12.30;99.90;;;;;;4956497;28;20251;-39
2023/04/19 00:57:36;;;;;;;21.97;19.53;;;12.30;99.90;;;;;;4947169;28;20242;-40
2023/04/19 01:00:06;;;;;;;22.40;20.00;;;12.30;99.90;;;;;;4938011;28;20725;-39
2023/04/19 01:02:36;;;;;;;23.03;20.63;;;12.30;99.90;;;;;;4945183;28;20207;-39
2023/04/19 01:05:08;;;;;;;23.27;20.23;;;12.20;99.90;;;;;;4945303;28;20207;-39
2023/04/19 01:07:38;;;;;;;22.73;19.60;;;12.20;99.90;;;;;;4974172;28;20222;-39
2023/04/19 01:10:05;;;;;;;20.13;18.03;;;12.20;99.90;;;;;;4943315;29;20679;-39
2023/04/19 01:12:35;;;;;;;23.20;20.70;;;12.10;99.90;;;;;;4959670;28;20311;-39
2023/04/19 01:15:02;;;;;;;22.67;19.80;;;12.10;99.90;;;;;;4944742;28;20210;-39
2023/04/19 01:17:32;;;;;;;20.97;18.50;;;12.10;99.90;;;;;;4931179;29;20534;-39
2023/04/19 01:20:09;;;;;;;20.63;18.53;;;12.10;99.90;;;;;;4943585;28;20208;-39
2023/04/19 01:22:41;;;;;;;21.80;19.47;;;12.20;99.90;;;;;;4944892;29;20673;-39
2023/04/19 01:25:11;;;;;;;21.77;19.47;;;12.20;99.90;;;;;;4945075;28;20518;-39
2023/04/19 01:27:38;;;;;;;20.67;18.43;;;12.10;99.90;;;;;;4942790;28;20610;-39
2023/04/19 01:30:06;;;;;;;21.67;19.23;;;12.10;99.90;;;;;;4945153;28;20255;-39
2023/04/19 01:32:35;;;;;;;22.67;20.07;;;12.20;99.90;;;;;;4973927;28;20597;-39
2023/04/19 01:35:10;;;;;;;20.38;18.27;;;12.20;99.90;;;;;;4944453;28;20682;-39
2023/04/19 01:37:42;;;;;;;20.67;18.13;;;12.30;99.90;;;;;;4944510;28;20199;-39
2023/04/19 01:40:09;;;;;;;21.77;19.47;;;12.30;99.90;;;;;;4945080;28;20243;-39
2023/04/19 01:42:39;;;;;;;22.07;19.20;;;12.30;99.90;;;;;;4944505;28;20282;-39
2023/04/19 01:45:09;;;;;;;20.93;18.70;;;12.30;99.90;;;;;;4945640;29;20204;-39
2023/04/19 01:47:36;;;;;;;24.17;19.37;;;12.40;99.90;;;;;;4975745;28;21052;-39
2023/04/19 01:50:10;;;;;;;20.27;17.83;;;12.40;99.90;;;;;;4945371;29;20215;-39
2023/04/19 01:52:43;;;;;;;19.67;17.60;;;12.40;99.90;;;;;;4946203;28;20518;-39
2023/04/19 01:55:12;;;;;;;21.17;18.97;;;12.50;99.90;;;;;;4948626;28;20287;-39
2023/04/19 01:57:40;;;;;;;20.43;17.87;;;12.50;99.90;;;;;;4962650;28;20215;-39
2023/04/19 02:00:07;;;;;;;22.93;19.20;;;12.50;99.90;;;;;;4946912;28;20270;-39
2023/04/19 02:02:40;;;;;;;21.30;18.50;;;12.50;99.90;;;;;;4948399;28;20275;-39
2023/04/19 02:05:10;;;;;;;20.03;17.13;;;12.50;99.90;;;;;;4944589;29;20215;-39
2023/04/19 02:07:40;;;;;;;20.60;18.33;;;12.50;99.90;;;;;;4931521;28;20209;-39
2023/04/19 02:10:10;;;;;;;20.03;17.97;;;12.50;99.90;;;;;;4946835;28;20507;-39
2023/04/19 02:12:37;;;;;;;21.33;18.50;;;12.50;99.90;;;;;;4947732;28;20352;-39
2023/04/19 02:15:07;;;;;;;19.83;17.67;;;12.50;99.90;;;;;;4947246;28;20323;-39
2023/04/19 02:17:39;;;;;;;21.80;18.43;;;12.60;99.90;;;;;;4948845;28;20659;-39
2023/04/19 02:20:12;;;;;;;21.57;19.27;;;12.60;99.90;;;;;;4948621;28;20204;-39
2023/04/19 02:22:42;;;;;;;20.33;17.63;;;12.60;99.90;;;;;;4948070;28;20204;-39
2023/04/19 02:25:09;;;;;;;19.93;17.73;;;12.60;99.90;;;;;;4946148;28;20635;-39
2023/04/19 02:27:39;;;;;;;19.43;17.37;;;12.60;99.90;;;;;;4946610;29;20282;-39
2023/04/19 02:30:07;;;;;;;20.23;17.90;;;12.60;99.90;;;;;;4946602;28;20698;-39
2023/04/19 02:32:36;;;;;;;21.70;19.40;;;12.70;99.90;;;;;;4960367;28;20670;-40
2023/04/19 02:35:08;;;;;;;19.50;17.50;;;12.60;99.90;;;;;;4948372;28;20232;-39
2023/04/19 02:37:36;;;;;;;20.63;18.43;;;12.60;99.90;;;;;;4947723;28;20235;-39
2023/04/19 02:40:04;;;;;;;20.07;17.97;;;12.60;99.90;;;;;;4947996;28;20208;-39
2023/04/19 02:42:33;;;;;;;21.50;19.03;;;12.60;99.90;;;;;;4946671;28;20740;-39
2023/04/19 02:45:03;;;;;;;19.77;17.67;;;12.60;99.90;;;;;;4946958;28;20210;-39
2023/04/19 02:47:32;;;;;;;20.70;18.07;;;12.60;99.90;;;;;;4944769;29;20613;-39
2023/04/19 02:50:02;;;;;;;21.57;17.83;;;12.50;99.90;;;;;;4948244;28;20227;-39
2023/04/19 02:52:29;;;;;;;18.10;16.25;;;12.60;99.90;;;;;;4946320;29;20424;-39
2023/04/19 02:54:58;;;;;;;21.13;17.73;;;12.60;99.90;;;;;;4946529;28;20692;-39
2023/04/19 02:57:31;;;;;;;19.20;17.10;;;12.60;99.90;;;;;;4916613;29;20268;-39
2023/04/19 03:00:00;;;;;;;18.93;16.93;;;12.70;99.90;;;;;;4939803;28;20239;-40
2023/04/19 03:02:27;;;;;;;19.50;16.67;;;12.70;99.90;;;;;;4945502;28;20306;-39
2023/04/19 03:04:57;;;;;;;20.50;17.13;;;12.70;99.90;;;;;;4946022;28;20584;-39
2023/04/19 03:07:24;;;;;;;19.23;16.97;;;12.70;99.90;;;;;;4946094;29;20310;-39
2023/04/19 03:09:52;;;;;;;18.73;16.67;;;12.70;99.90;;;;;;4946414;28;20200;-39
2023/04/19 03:12:21;;;;;;;18.02;16.13;;;12.70;99.90;;;;;;4964759;28;20766;-39
2023/04/19 03:14:48;;;;;;;19.60;17.40;;;12.70;99.90;;;;;;4945588;29;20200;-39
2023/04/19 03:17:20;;;;;;;20.83;17.43;;;12.80;99.90;;;;;;4946564;28;20706;-40
2023/04/19 03:19:48;;;;;;;21.50;17.07;;;12.80;99.90;;;;;;4945870;28;20266;-39
2023/04/19 03:22:17;;;;;;;20.60;17.63;;;12.80;99.90;;;;;;4959872;28;20212;-40
2023/04/19 03:24:46;;;;;;;19.40;16.40;;;12.80;99.90;;;;;;4947391;28;20247;-44
2023/04/19 03:27:18;;;;;;;19.07;16.97;;;12.80;99.90;;;;;;4958531;28;20697;-40
2023/04/19 03:29:45;;;;;;;18.73;16.60;;;12.80;99.90;;;;;;4977357;28;20199;-39
2023/04/19 03:32:17;;;;;;;20.03;17.00;;;12.90;99.90;;;;;;4927352;29;20534;-39
2023/04/19 03:34:46;;;;;;;18.33;15.27;;;12.90;99.90;;;;;;4942349;28;20230;-39
2023/04/19 03:37:13;;;;;;;20.20;17.93;;;12.90;99.90;;;;;;4945563;28;20753;-39
2023/04/19 03:39:40;;;;;;;19.03;16.97;;;12.90;99.90;;;;;;4944724;28;20685;-39
2023/04/19 03:42:08;;;;;;;20.13;16.77;;;12.80;99.90;;;;;;4944523;28;20227;-40
2023/04/19 03:44:39;;;;;;;19.53;16.43;;;12.90;99.90;;;;;;4946924;28;20685;-40
2023/04/19 03:47:08;;;;;;;19.40;16.27;;;12.90;99.90;;;;;;4945764;28;20217;-40
2023/04/19 03:49:35;;;;;;;18.93;16.23;;;12.90;99.90;;;;;;4946933;28;20227;-39
2023/04/19 03:52:05;;;;;;;17.27;15.40;;;12.90;99.90;;;;;;4946088;28;20235;-40
2023/04/19 03:54:34;;;;;;;19.57;17.00;;;12.90;99.90;;;;;;4947077;28;20210;-40
2023/04/19 03:57:01;;;;;;;17.13;15.33;;;12.80;99.90;;;;;;4944112;28;20315;-40
2023/04/19 03:59:33;;;;;;;18.57;16.60;;;12.80;99.90;;;;;;4977202;28;20309;-39
2023/04/19 04:02:05;;;;;;;22.40;17.00;;;12.80;99.90;;;;;;4945936;29;20207;-39
2023/04/19 04:04:32;;;;;;;19.47;16.67;;;12.80;99.90;;;;;;4946655;28;20219;-39
2023/04/19 04:07:00;;;;;;;19.67;16.67;;;12.80;99.90;;;;;;4946252;28;20247;-39
2023/04/19 04:09:29;;;;;;;20.77;16.67;;;12.70;99.90;;;;;;4927878;29;20215;-39
2023/04/19 04:11:59;;;;;;;20.27;16.80;;;12.70;99.90;;;;;;4909644;29;20300;-40
2023/04/19 04:14:31;;;;;;;20.53;16.67;;;12.70;99.90;;;;;;4930604;28;20203;-39
2023/04/19 04:16:58;;;;;;;21.52;17.08;;;12.70;99.90;;;;;;4944187;29;20301;-40
2023/04/19 04:19:28;;;;;;;20.77;16.50;;;12.70;99.90;;;;;;4946459;28;20211;-40
2023/04/19 04:21:55;;;;;;;18.30;15.75;;;12.70;99.90;;;;;;4942319;29;21764;-39
2023/04/19 04:24:25;;;;;;;22.10;18.38;;;12.60;99.90;;;;;;4944931;28;20291;-39
2023/04/19 04:26:59;;;;;;;19.25;16.67;;;12.60;99.90;;;;;;4943852;28;20358;-39
2023/04/19 04:29:33;;;;;;;20.88;17.05;;;12.60;99.90;;;;;;4944864;28;20281;-39
2023/04/19 04:32:03;;;;;;;21.08;17.38;;;12.60;99.90;;;;;;4945829;28;20326;-39
2023/04/19 04:34:31;;;;;;;18.88;16.67;;;12.60;99.90;;;;;;4943433;28;20200;-39
2023/04/19 04:37:01;;;;;;;19.40;16.52;;;12.60;99.90;;;;;;4943121;28;20227;-39
2023/04/19 04:39:33;;;;;;;21.70;17.92;;;12.60;99.90;;;;;;4944044;28;20211;-39
2023/04/19 04:42:01;;;;;;;22.00;17.25;;;12.50;99.90;;;;;;4944224;28;20212;-39
2023/04/19 04:44:30;;;;;;;21.45;17.95;;;12.50;99.90;;;;;;4944801;29;20451;-39
2023/04/19 04:46:57;;;;;;;19.23;15.80;;;12.50;99.90;;;;;;4943920;29;20696;-39
2023/04/19 04:49:29;;;;;;;24.67;19.23;;;12.50;99.90;;;;;;4944425;29;20211;-39
2023/04/19 04:51:59;;;;;;;22.73;18.15;;;12.50;99.90;;;;;;4945324;28;20259;-39
2023/04/19 04:54:26;;;;;;;21.38;17.67;;;12.40;99.90;;;;;;4945108;28;20699;-39
2023/04/19 04:56:58;;;;;;;21.13;17.35;;;12.40;99.90;;;;;;4944443;28;20774;-39
2023/04/19 04:59:25;;;;;;;22.30;17.58;;;12.40;99.90;;;;;;4940855;28;20243;-39
2023/04/19 05:01:53;;;;;;;22.80;18.10;;;12.50;99.90;;;;;;4943735;28;20962;-39
2023/04/19 05:04:24;;;;;;;20.90;17.05;;;12.40;99.90;;;;;;4941836;28;20721;-39
2023/04/19 05:06:56;;;;;;;20.67;16.55;;;12.50;99.90;;;;;;4942838;28;20706;-39
2023/04/19 05:09:26;;;;;;;24.38;19.67;;;12.50;99.90;;;;;;4945071;28;20211;-39
2023/04/19 05:11:55;;;;;;;20.73;17.92;;;12.40;99.90;;;;;;4955704;28;20223;-39
2023/04/19 05:14:25;;;;;;;27.95;19.48;;;12.40;99.90;;;;;;4942407;29;20683;-40
2023/04/19 05:16:54;;;;;;;24.58;18.60;;;12.40;99.90;;;;;;4943222;28;20206;-38
2023/04/19 05:19:23;;;;;;;25.88;19.02;;;12.40;99.90;;;;;;4940689;29;20291;-38
2023/04/19 05:21:53;;;;;;;21.55;17.25;;;12.40;99.90;;;;;;4936637;29;20227;-38
2023/04/19 05:24:22;;;;;;;22.17;18.58;;;12.40;99.90;;;;;;4941089;29;20305;-38
2023/04/19 05:26:49;;;;;;;23.05;18.15;;;12.40;99.90;;;;;;4948383;28;20211;-39
2023/04/19 05:29:16;;;;;;;21.20;17.65;;;12.40;99.90;;;;;;4950193;28;20680;-39
2023/04/19 05:31:48;;;;;;;20.90;17.27;;;12.50;99.90;;;;;;4965633;28;20254;-38
2023/04/19 05:34:20;;;;;;;26.27;19.30;;;12.50;99.90;;;;;;4950736;28;20219;-38
2023/04/19 05:36:50;;;;;;;23.23;18.80;;;12.50;99.90;;;;;;4950196;28;20260;-40
2023/04/19 05:39:17;;;;;;;25.27;19.73;;;12.50;99.90;;;;;;4947635;29;20203;-39
2023/04/19 05:41:45;;;;;;;23.15;19.02;;;12.50;99.90;;;;;;4979724;28;20218;-39
2023/04/19 05:44:12;;;;;;;23.73;17.90;;;12.50;99.90;;;;;;4981804;28;20218;-39
2023/04/19 05:46:42;;;;;;;24.83;18.15;;;12.50;99.90;;;;;;4946936;29;20311;-39
2023/04/19 05:49:14;;;;;;;22.73;17.27;;;12.50;99.90;;;;;;4962219;28;20222;-39
2023/04/19 05:51:41;;;;;;;27.20;19.07;;;12.60;99.90;;;;;;4950038;28;20227;-39
2023/04/19 05:54:12;;;;;;;23.00;18.23;;;12.60;99.90;;;;;;4978705;28;20215;-39
2023/04/19 05:56:42;;;;;;;26.03;19.97;;;12.70;99.90;;;;;;4948900;28;20496;-39
2023/04/19 05:59:14;;;;;;;26.23;18.30;;;12.70;99.90;;;;;;4965415;28;20301;-39
2023/04/19 06:01:41;;;;;;;22.30;18.70;;;12.70;99.90;;;;;;4950509;28;20744;-40
2023/04/19 06:04:13;;;;;;;23.10;18.77;;;12.70;99.90;;;;;;4949893;28;20827;-39
2023/04/19 06:06:46;;;;;;;21.03;17.17;;;12.70;99.90;;;;;;4946702;28;20195;-39
2023/04/19 06:09:16;;;;;;;22.80;17.70;;;12.80;99.90;;;;;;4942995;28;20668;-39
2023/04/19 06:11:47;;;;;;;21.13;17.20;;;12.80;99.90;;;;;;4958911;28;20231;-39
2023/04/19 06:14:17;;;;;;;21.63;17.17;;;12.80;99.90;;;;;;4951452;28;20290;-39
2023/04/19 06:16:48;;;;;;;24.10;18.20;;;12.90;99.90;;;;;;4958395;28;20208;-39
2023/04/19 06:19:17;;;;;;;21.90;17.13;;;12.90;99.90;;;;;;4948950;28;20258;-39
2023/04/19 06:21:49;;;;;;;25.87;18.63;;;12.90;99.90;;;;;;4946022;28;20686;-40
2023/04/19 06:24:17;;;;;;;24.33;17.83;;;13.00;99.90;;;;;;4929167;29;20221;-39
2023/04/19 06:26:44;;;;;;;23.03;18.20;;;13.00;99.90;;;;;;4948752;28;20246;-38
2023/04/19 06:29:11;;;;;;;25.57;16.83;;;13.00;99.90;;;;;;4949814;28;20215;-38
2023/04/19 06:31:41;;;;;;;24.17;16.83;;;13.10;99.90;;;;;;4947744;28;20297;-35
2023/04/19 06:34:09;;;;;;;24.47;18.17;;;13.10;99.90;;;;;;4945998;28;20212;-36
2023/04/19 06:36:37;;;;;;;22.85;16.38;;;13.20;99.90;;;;;;4964687;28;20227;-36
2023/04/19 06:39:07;;;;;;;24.23;17.60;;;13.20;99.90;;;;;;4936530;28;20218;-36
2023/04/19 06:41:36;;;;;;;20.87;16.60;;;13.30;99.90;;;;;;4936062;28;20222;-35
2023/04/19 06:44:08;;;;;;;19.65;15.52;;;13.30;99.90;;;;;;4943530;28;20343;-36
2023/04/19 06:46:37;;;;;;;22.20;16.73;;;13.40;99.90;;;;;;4978190;28;20230;-36
2023/04/19 06:49:05;;;;;;;23.17;16.73;;;13.50;99.90;;;;;;4944704;28;20243;-36
2023/04/19 06:51:34;;;;;;;18.97;16.27;;;13.50;99.90;;;;;;4945970;29;20583;-36
2023/04/19 06:54:04;;;;;;;24.43;17.10;;;13.50;99.90;;;;;;4960414;28;20208;-35
2023/04/19 06:56:45;;;;;;;22.10;17.30;;;13.60;99.90;;;;;;4944424;29;20275;-36
2023/04/19 06:59:16;;;;;;;20.33;16.45;;;13.60;99.90;;;;;;4946921;28;20527;-36
2023/04/19 07:01:44;;;;;;;22.00;15.57;;;13.60;99.90;;;;;;4975383;28;20243;-40
2023/04/19 07:04:12;;;;;;;20.27;16.53;;;13.70;99.90;;;;;;4961204;28;20286;-36
2023/04/19 07:06:42;;;;;;;21.97;17.07;;;13.70;99.90;;;;;;4945635;28;20246;-36
2023/04/19 07:09:11;;;;;;;20.73;16.30;;;13.80;99.90;;;;;;4946645;29;20214;-36
2023/04/19 07:11:41;;;;;;;23.00;18.50;;;13.80;99.90;;;;;;4973853;28;20551;-36
2023/04/19 07:14:08;;;;;;;17.73;15.27;;;13.80;99.90;;;;;;4944605;28;20317;-36
2023/04/19 07:16:35;;;;;;;20.40;15.80;;;13.90;99.90;;;;;;4944686;28;20838;-36
2023/04/19 07:19:04;;;;;;;21.97;16.70;;;13.90;99.90;;;;;;4962544;28;20254;-36
2023/04/19 07:21:34;;;;;;;20.43;16.57;;;13.90;99.90;;;;;;4944897;29;20251;-36
2023/04/19 07:24:11;;;;;;;18.25;14.63;;;14.00;99.90;;;;;;4946661;28;20211;-36
2023/04/19 07:26:38;;;;;;;18.45;14.60;;;14.00;99.90;;;;;;4946113;29;20203;-36
2023/04/19 07:29:08;;;;;;;19.93;15.73;;;14.10;99.90;;;;;;4940812;28;20307;-36
2023/04/19 07:31:37;;;;;;;17.80;15.63;;;14.10;99.90;;;;;;4943086;28;20225;-35
2023/04/19 07:34:07;;;;;;;21.70;15.57;;;14.10;99.90;;;;;;4940232;28;20270;-35
2023/04/19 07:36:37;;;;;;;20.10;15.70;;;14.20;99.90;;;;;;4941819;28;20558;-35
2023/04/19 07:39:08;;;;;;;18.13;15.00;;;14.20;99.90;;;;;;4939364;28;20326;-36
2023/04/19 07:41:37;;;;;;;16.85;13.77;;;14.30;99.90;;;;;;4969859;28;20587;-36
2023/04/19 07:44:07;;;;;;;18.27;13.80;;;14.30;99.90;;;;;;4970772;28;20208;-38
2023/04/19 07:46:34;;;;;;;17.13;13.87;;;14.40;99.90;;;;;;4970251;28;20231;-36
2023/04/19 07:49:02;;;;;;;15.98;14.18;;;14.40;99.90;;;;;;4968025;28;20224;-35
2023/04/19 07:51:30;;;;;;;15.73;13.63;;;14.50;99.90;;;;;;4944417;28;20351;-37
2023/04/19 07:54:02;;;;;;;17.85;13.80;;;14.50;99.90;;;;;;4960110;28;20223;-36
2023/04/19 07:56:29;;;;;;;17.73;14.07;;;14.50;99.90;;;;;;4943719;28;20220;-37
2023/04/19 07:58:59;;;;;;;18.77;14.63;;;14.60;99.90;;;;;;4971010;28;20231;-37
2023/04/19 08:01:35;;;;;;;22.67;14.93;;;14.60;99.90;;;;;;4971871;28;20199;-37
2023/04/19 08:04:07;;;;;;;15.95;13.13;;;14.60;99.90;;;;;;4941755;28;20215;-37
2023/04/19 08:06:38;;;;;;;18.40;14.80;;;14.60;99.90;;;;;;4944989;29;20230;-37
2023/04/19 08:09:06;;;;;;;15.80;13.00;;;14.70;99.90;;;;;;4975303;28;20235;-37
2023/04/19 08:11:36;;;;;;;17.42;14.45;;;14.70;99.90;;;;;;4944110;28;20204;-37
2023/04/19 08:14:06;;;;;;;17.52;13.48;;;14.70;99.90;;;;;;4975276;28;20525;-37
2023/04/19 08:16:46;;;;;;;20.73;14.07;;;14.70;99.90;;;;;;4944621;28;20709;-37
2023/04/19 08:19:21;;;;;;;18.48;13.63;;;14.70;99.90;;;;;;4949176;28;20717;-37
2023/04/19 08:21:53;;;;;;;16.55;13.20;;;14.70;99.90;;;;;;4941891;28;20298;-37
2023/04/19 08:24:22;;;;;;;16.05;13.02;;;14.70;99.90;;;;;;4954633;28;20308;-37
2023/04/19 08:26:52;;;;;;;19.65;13.63;;;14.80;99.90;;;;;;4938315;28;20207;-37
2023/04/19 08:29:21;;;;;;;20.13;13.45;;;14.80;99.90;;;;;;4943389;28;20306;-37
2023/04/19 08:31:48;;;;;;;16.70;13.90;;;14.90;99.90;;;;;;4956147;28;20340;-37
2023/04/19 08:34:20;;;;;;;22.58;14.40;;;14.90;99.90;;;;;;4942386;28;20246;-37
2023/04/19 08:36:49;;;;;;;16.13;13.38;;;14.90;99.90;;;;;;4943764;28;20223;-37
2023/04/19 08:39:31;;;;;;;15.60;12.93;;;14.90;99.90;;;;;;4970118;28;20261;-37
2023/04/19 08:42:05;;;;;;;15.50;13.38;;;15.00;99.90;;;;;;4965754;28;20223;-37
2023/04/19 08:44:58;;;;;;;18.77;14.48;;;15.00;99.90;;;;;;4945996;28;20322;-37
2023/04/19 08:47:33;;;;;;;15.70;12.10;;;15.00;99.90;;;;;;4930501;28;20200;-37
2023/04/19 08:50:05;;;;;;;16.98;13.07;;;15.00;99.90;;;;;;4943649;28;20218;-39
2023/04/19 08:52:52;;;;;;;14.18;11.80;;;15.10;99.90;;;;;;4939868;28;20249;-40
2023/04/19 08:55:29;;;;;;;16.17;13.10;;;15.10;99.90;;;;;;4941670;28;20495;-39
2023/04/19 08:57:57;;;;;;;18.67;12.32;;;15.20;99.90;;;;;;4943916;28;20259;-39
2023/04/19 09:00:24;;;;;;;18.52;13.55;;;15.30;99.90;;;;;;4947861;28;20227;-40
2023/04/19 09:02:56;;;;;;;18.03;11.83;;;15.30;99.90;;;;;;4941236;28;20935;-40
2023/04/19 09:05:28;;;;;;;15.77;12.30;;;15.30;99.90;;;;;;4940504;28;20223;-40
2023/04/19 09:08:21;;;;;;;16.83;12.13;;;15.30;99.90;;;;;;4942100;28;20219;-40
2023/04/19 09:10:59;;;;;;;18.27;12.53;;;15.30;99.90;;;;;;4932321;28;20207;-39
2023/04/19 09:13:28;;;;;;;12.33;10.70;;;15.30;99.90;;;;;;4957758;28;20218;-40
2023/04/19 09:15:59;;;;;;;13.57;10.83;;;15.30;99.90;;;;;;4941742;28;20298;-39
2023/04/19 09:18:26;;;;;;;14.50;11.57;;;15.40;99.90;;;;;;4941713;28;20233;-40
2023/04/19 09:21:00;;;;;;;17.47;12.03;;;15.40;99.90;;;;;;4957010;28;20199;-40
2023/04/19 09:23:30;;;;;;;19.20;11.88;;;15.40;99.90;;;;;;4940481;28;20749;-39
2023/04/19 09:25:59;;;;;;;11.10;9.90;;;15.40;99.90;;;;;;4953544;28;21054;-39
2023/04/19 09:28:56;;;;;;;11.57;10.37;;;15.40;99.90;;;;;;4953789;28;20218;-40
2023/04/19 09:31:28;;;;;;;11.73;9.63;;;15.40;99.90;;;;;;4957540;28;20213;-39
2023/04/19 09:34:18;;;;;;;14.87;10.83;;;15.40;99.90;;;;;;4944142;28;20243;-40
2023/04/19 09:36:47;;;;;;;17.50;9.70;;;15.50;99.90;;;;;;4938322;28;20602;-39
2023/04/19 09:39:31;;;;;;;11.40;9.23;;;15.50;99.90;;;;;;4942878;28;20642;-39
2023/04/19 09:42:01;;;;;;;11.13;8.97;;;15.60;99.90;;;;;;4937916;28;20334;-39
2023/04/19 09:44:32;;;;;;;10.00;8.93;;;15.70;99.90;;;;;;4944107;29;20640;-39
2023/04/19 09:47:28;;;;;;;9.77;7.63;;;15.70;99.90;;;;;;4940983;28;20211;-40
2023/04/19 09:50:11;;;;;;;11.07;8.07;;;15.70;99.90;;;;;;4939816;28;20211;-40
2023/04/19 09:52:51;;;;;;;10.63;8.00;;;15.70;99.90;;;;;;4958524;28;20216;-40
2023/04/19 09:55:20;;;;;;;10.97;7.97;;;15.80;99.90;;;;;;4971151;28;20547;-39
2023/04/19 09:57:51;;;;;;;9.93;7.83;;;15.80;99.90;;;;;;4937319;28;20207;-40
2023/04/19 10:00:27;;;;;;;9.63;7.80;;;15.70;99.90;;;;;;4938753;28;20235;-40
2023/04/19 10:03:08;;;;;;;13.20;7.85;;;15.70;99.90;;;;;;4965988;28;20218;-39
2023/04/19 10:05:41;;;;;;;8.70;7.80;;;15.60;99.90;;;;;;4954612;28;21697;-40
2023/04/19 10:08:14;;;;;;;9.35;8.05;;;15.60;99.90;;;;;;4940389;28;20891;-41
2023/04/19 10:10:45;;;;;;;8.82;7.10;;;15.60;99.90;;;;;;4936214;28;20211;-40
2023/04/19 10:13:22;;;;;;;8.48;7.50;;;15.70;99.90;;;;;;4960194;28;20317;-40
2023/04/19 10:15:53;;;;;;;8.30;7.40;;;15.90;99.90;;;;;;4939191;28;20258;-40
2023/04/19 10:18:34;;;;;;;8.13;6.72;;;15.90;99.90;;;;;;4955587;28;20206;-40
2023/04/19 10:21:06;;;;;;;9.82;7.53;;;16.00;99.90;;;;;;4964591;28;20196;-41
2023/04/19 10:23:39;;;;;;;9.07;7.32;;;16.10;99.90;;;;;;4942848;28;20208;-40
2023/04/19 10:26:06;;;;;;;10.13;6.78;;;16.20;99.90;;;;;;4955042;28;20211;-40
2023/04/19 10:28:36;;;;;;;8.43;6.82;;;16.30;99.90;;;;;;4945200;28;20208;-40
2023/04/19 10:31:06;;;;;;;7.15;6.38;;;16.40;99.90;;;;;;4957485;28;20212;-40
2023/04/19 10:33:35;;;;;;;7.72;6.25;;;16.50;99.90;;;;;;4947824;28;20233;-40
2023/04/19 10:36:10;;;;;;;9.23;7.13;;;16.60;99.90;;;;;;4933722;28;20419;-40
2023/04/19 10:38:48;;;;;;;11.85;7.63;;;16.60;99.90;;;;;;4934033;28;20203;-39
2023/04/19 10:41:16;;;;;;;9.55;7.68;;;16.80;99.90;;;;;;4931869;28;20219;-40
2023/04/19 10:43:54;;;;;;;10.27;8.05;;;16.70;99.90;;;;;;4960533;28;20211;-40
2023/04/19 10:46:21;;;;;;;7.72;6.15;;;16.70;99.90;;;;;;4955095;28;21111;-40
2023/04/19 10:48:59;;;;;;;8.35;6.57;;;16.80;99.90;;;;;;4933148;28;20266;-40
2023/04/19 10:51:31;;;;;;;8.63;6.90;;;16.90;99.90;;;;;;4938950;28;20203;-40
2023/04/19 10:54:08;;;;;;;8.50;7.53;;;16.90;99.90;;;;;;4937735;28;20678;-41
2023/04/19 10:57:07;;;;;;;8.77;6.80;;;16.90;99.90;;;;;;4943618;28;20219;-40
2023/04/19 10:59:35;;;;;;;8.73;6.90;;;17.00;99.90;;;;;;4942616;28;20338;-40
2023/04/19 11:02:24;;;;;;;8.50;6.95;;;17.00;99.90;;;;;;4971383;28;20299;-40
2023/04/19 11:04:54;;;;;;;9.80;7.75;;;17.10;99.90;;;;;;4938277;28;20196;-39
2023/04/19 11:07:24;;;;;;;11.30;7.82;;;17.10;99.90;;;;;;4934060;28;20223;-40
2023/04/19 11:09:51;;;;;;;16.55;8.32;;;17.10;99.90;;;;;;4969329;28;22071;-40
2023/04/19 11:12:21;;;;;;;7.82;7.03;;;17.10;99.90;;;;;;4919892;28;20271;-40
2023/04/19 11:14:56;;;;;;;10.23;8.32;;;17.10;99.90;;;;;;4941463;28;20222;-39
2023/04/19 11:17:27;;;;;;;10.57;7.90;;;17.10;99.90;;;;;;4941992;28;20304;-40
2023/04/19 11:20:02;;;;;;;16.45;9.00;;;17.10;99.90;;;;;;4953888;28;20334;-40
2023/04/19 11:22:30;;;;;;;12.30;8.38;;;17.20;99.90;;;;;;4938442;28;20219;-40
2023/04/19 11:25:13;;;;;;;11.20;7.07;;;17.10;99.90;;;;;;4948736;28;20429;-40
2023/04/19 11:27:41;;;;;;;10.23;8.13;;;17.20;99.90;;;;;;4940804;28;20211;-40
2023/04/19 11:30:13;;;;;;;9.52;7.40;;;17.30;99.90;;;;;;4953050;28;20218;-39
2023/04/19 11:32:49;;;;;;;12.07;8.95;;;17.30;99.90;;;;;;4958292;28;20215;-40
2023/04/19 11:35:23;;;;;;;10.10;7.38;;;17.40;99.90;;;;;;4958763;28;20215;-41
2023/04/19 11:37:56;;;;;;;10.32;7.50;;;17.40;99.90;;;;;;4956080;28;20298;-40
2023/04/19 11:40:25;;;;;;;11.88;8.27;;;17.30;99.90;;;;;;4938211;28;20205;-40
2023/04/19 11:43:01;;;;;;;7.82;7.03;;;17.30;99.90;;;;;;4940895;28;20322;-39
2023/04/19 11:45:30;;;;;;;9.40;7.93;;;17.30;99.90;;;;;;4958246;28;20230;-41
2023/04/19 11:48:13;;;;;;;17.23;8.18;;;17.10;99.90;;;;;;4939086;28;20302;-41
2023/04/19 11:50:42;;;;;;;9.45;7.50;;;17.10;99.90;;;;;;4935557;28;20294;-40
2023/04/19 11:53:13;;;;;;;12.18;8.07;;;17.10;99.90;;;;;;4943891;28;20262;-40
2023/04/19 11:55:47;;;;;;;9.30;7.72;;;17.10;99.90;;;;;;4942458;28;20208;-40
2023/04/19 11:58:35;;;;;;;12.85;7.88;;;17.10;99.90;;;;;;4956815;28;20219;-40
2023/04/19 12:01:13;;;;;;;8.50;7.35;;;17.10;99.90;;;;;;4936289;28;20240;-40
2023/04/19 12:03:54;;;;;;;8.20;6.70;;;17.00;99.90;;;;;;4956661;28;20207;-40
2023/04/19 12:06:24;;;;;;;9.55;6.70;;;17.00;99.90;;;;;;4942604;28;20211;-40
2023/04/19 12:08:53;;;;;;;11.73;7.30;;;16.90;99.90;;;;;;4945036;28;20211;-40
2023/04/19 12:11:28;;;;;;;7.32;6.15;;;16.90;99.90;;;;;;4944224;28;20408;-40
2023/04/19 12:14:08;;;;;;;8.25;5.82;;;16.90;99.90;;;;;;4940935;28;20227;-40
2023/04/19 12:16:41;;;;;;;8.27;5.78;;;16.80;99.30;;;;;;4942407;28;20231;-40
2023/04/19 12:19:16;;;;;;;14.35;6.88;;;16.80;99.10;;;;;;4940654;28;20223;-40
2023/04/19 12:21:47;;;;;;;10.43;5.90;;;16.80;99.90;;;;;;4940307;28;20199;-40
2023/04/19 12:24:19;;;;;;;8.60;5.68;;;16.80;99.90;;;;;;4947845;28;20307;-40
2023/04/19 12:26:57;;;;;;;7.47;4.75;;;16.80;98.80;;;;;;4943284;28;20634;-40
2023/04/19 12:29:46;;;;;;;9.30;5.05;;;16.70;99.40;;;;;;4946085;28;20208;-40
2023/04/19 12:32:16;;;;;;;5.60;4.95;;;16.70;97.20;;;;;;4976309;28;20231;-41
2023/04/19 12:34:46;;;;;;;10.45;5.25;;;16.60;98.60;;;;;;4941962;28;20234;-38
2023/04/19 12:37:16;;;;;;;7.75;5.38;;;16.50;97.30;;;;;;4945435;28;20211;-38
2023/04/19 12:39:45;;;;;;;14.93;5.15;;;16.60;98.40;;;;;;4943628;28;20230;-38
2023/04/19 12:42:15;;;;;;;6.15;4.30;;;16.50;97.00;;;;;;4938705;28;20661;-38
2023/04/19 12:44:44;;;;;;;5.25;4.50;;;16.60;98.50;;;;;;4942290;28;20699;-40
2023/04/19 12:47:13;;;;;;;8.95;5.15;;;16.60;97.40;;;;;;4925932;29;20308;-38
2023/04/19 12:49:41;;;;;;;6.97;4.25;;;16.60;97.30;;;;;;4940114;29;20226;-38